MAPA DE AEROPUERTO

INFORMACIÓN METAR y TAF

METAR FOR MDSD
ADDS - METARS form results

(1718 UTC 07 May 2021)
Data provider http://aviationweather.gov/metar/data/
 
METAR text: MDSD 071700Z 19008KT 9999 SCT020 31/19 Q1016
Conditions at: MDSD (CAUCEDO/DE LAS , DO) observed 1700 UTC 07 May 2021
Temperature: 31.0°C (88°F)
Dewpoint: 19.0°C (66°F) [RH = 49%]
Pressure (altimeter): 30.00 inches Hg (1016.0 mb)
Winds: from the S (190 degrees) at 9 MPH (8 knots; 4.1 m/s)
Visibility: 6 or more miles (10+ km)
Ceiling: at least 12,000 feet AGL
Clouds: scattered clouds at 2000 feet AGL
Weather: no significant weather observed at this time

Forecast for: MDSD (CAUCEDO/DE LAS , DO)
Text: TAF MDSD 071600Z 0718/0818 14008KT 9999 FEW020
Forecast period: 1800 to 2200 UTC 07 May 2021
Forecast type: FROM: standard forecast or significant change
Winds: from the SE (140 degrees) at 9 MPH (8 knots; 4.1 m/s)
Visibility: 6 or more miles (10+ km)
Ceiling: at least 12,000 feet AGL
Clouds: few clouds at 2000 feet AGL
Weather: no significant weather forecast for this period
Text: BECMG 0722/0800 05004KT
Forecast period: 2200 UTC 07 May 2021 to 1800 UTC 08 May 2021
Forecast type: BECOMING: Conditions expected to become as follows by 0000 UTC 08 May 2021
Winds: from the NE (50 degrees) at 5 MPH (4 knots; 2.1 m/s)
Visibility: 6 or more miles (10+ km)
Ceiling: at least 12,000 feet AGL
Clouds: few clouds at 2000 feet AGL
Weather: no significant weather forecast for this period